sensor_id;sensor_type;location;lat;lon;timestamp;P1;P2;P0
68713;PMS7003;55690;51.566;19.198;2023-04-19T00:01:41;16;9;5
68713;PMS7003;55690;51.566;19.198;2023-04-19T00:05:47;14;6;6
68713;PMS7003;55690;51.566;19.198;2023-04-19T00:09:54;12;8;6
68713;PMS7003;55690;51.566;19.198;2023-04-19T00:14:00;15;9;7
68713;PMS7003;55690;51.566;19.198;2023-04-19T00:18:06;11;11;8
68713;PMS7003;55690;51.566;19.198;2023-04-19T00:22:12;20;9;6
68713;PMS7003;55690;51.566;19.198;2023-04-19T00:26:18;9;8;7
68713;PMS7003;55690;51.566;19.198;2023-04-19T00:30:24;14;9;8
68713;PMS7003;55690;51.566;19.198;2023-04-19T00:34:31;7;7;5
68713;PMS7003;55690;51.566;19.198;2023-04-19T00:38:37;20;9;7
68713;PMS7003;55690;51.566;19.198;2023-04-19T00:42:43;12;11;6
68713;PMS7003;55690;51.566;19.198;2023-04-19T00:46:49;14;9;8
68713;PMS7003;55690;51.566;19.198;2023-04-19T00:50:55;8;6;4
68713;PMS7003;55690;51.566;19.198;2023-04-19T00:55:02;11;10;5
68713;PMS7003;55690;51.566;19.198;2023-04-19T00:59:08;8;8;6
68713;PMS7003;55690;51.566;19.198;2023-04-19T01:03:14;9;8;6
68713;PMS7003;55690;51.566;19.198;2023-04-19T01:07:20;15;5;4
68713;PMS7003;55690;51.566;19.198;2023-04-19T01:11:27;8;6;5
68713;PMS7003;55690;51.566;19.198;2023-04-19T01:15:32;9;8;7
68713;PMS7003;55690;51.566;19.198;2023-04-19T01:19:39;14;10;6
68713;PMS7003;55690;51.566;19.198;2023-04-19T01:23:45;10;10;7
68713;PMS7003;55690;51.566;19.198;2023-04-19T01:27:51;9;8;5
68713;PMS7003;55690;51.566;19.198;2023-04-19T01:31:57;8;5;5
68713;PMS7003;55690;51.566;19.198;2023-04-19T01:36:03;11;6;4
68713;PMS7003;55690;51.566;19.198;2023-04-19T01:40:10;13;10;7
68713;PMS7003;55690;51.566;19.198;2023-04-19T01:44:16;12;10;8
68713;PMS7003;55690;51.566;19.198;2023-04-19T01:48:22;4;4;3
68713;PMS7003;55690;51.566;19.198;2023-04-19T01:52:28;7;7;6
68713;PMS7003;55690;51.566;19.198;2023-04-19T01:56:34;8;8;8
68713;PMS7003;55690;51.566;19.198;2023-04-19T02:00:40;9;5;4
68713;PMS7003;55690;51.566;19.198;2023-04-19T02:04:46;10;4;4
68713;PMS7003;55690;51.566;19.198;2023-04-19T02:08:53;8;8;7
68713;PMS7003;55690;51.566;19.198;2023-04-19T02:12:59;18;11;8
68713;PMS7003;55690;51.566;19.198;2023-04-19T02:17:05;14;7;6
68713;PMS7003;55690;51.566;19.198;2023-04-19T02:21:11;13;11;7
68713;PMS7003;55690;51.566;19.198;2023-04-19T02:25:17;12;10;7
68713;PMS7003;55690;51.566;19.198;2023-04-19T02:29:24;16;9;7
68713;PMS7003;55690;51.566;19.198;2023-04-19T02:33:30;10;9;8
68713;PMS7003;55690;51.566;19.198;2023-04-19T02:37:36;11;10;5
68713;PMS7003;55690;51.566;19.198;2023-04-19T02:41:42;16;8;4
68713;PMS7003;55690;51.566;19.198;2023-04-19T02:45:49;11;9;7
68713;PMS7003;55690;51.566;19.198;2023-04-19T02:49:54;20;9;6
68713;PMS7003;55690;51.566;19.198;2023-04-19T02:54:00;10;10;9
68713;PMS7003;55690;51.566;19.198;2023-04-19T02:58:07;12;10;7
68713;PMS7003;55690;51.566;19.198;2023-04-19T03:02:13;9;9;5
68713;PMS7003;55690;51.566;19.198;2023-04-19T03:06:19;13;7;6
68713;PMS7003;55690;51.566;19.198;2023-04-19T03:10:25;17;13;7
68713;PMS7003;55690;51.566;19.198;2023-04-19T03:14:32;9;8;6
68713;PMS7003;55690;51.566;19.198;2023-04-19T03:18:38;16;13;11
68713;PMS7003;55690;51.566;19.198;2023-04-19T03:22:44;10;2;2
68713;PMS7003;55690;51.566;19.198;2023-04-19T03:26:50;15;9;6
68713;PMS7003;55690;51.566;19.198;2023-04-19T03:30:56;9;9;8
68713;PMS7003;55690;51.566;19.198;2023-04-19T03:35:02;5;5;4
68713;PMS7003;55690;51.566;19.198;2023-04-19T03:39:08;19;10;7
68713;PMS7003;55690;51.566;19.198;2023-04-19T03:43:15;4;4;3
68713;PMS7003;55690;51.566;19.198;2023-04-19T03:47:21;6;5;4
68713;PMS7003;55690;51.566;19.198;2023-04-19T03:51:27;7;6;5
68713;PMS7003;55690;51.566;19.198;2023-04-19T03:55:33;3;3;2
68713;PMS7003;55690;51.566;19.198;2023-04-19T03:59:39;2;2;2
68713;PMS7003;55690;51.566;19.198;2023-04-19T04:03:46;9;9;7
68713;PMS7003;55690;51.566;19.198;2023-04-19T04:07:52;9;5;4
68713;PMS7003;55690;51.566;19.198;2023-04-19T04:11:58;12;4;3
68713;PMS7003;55690;51.566;19.198;2023-04-19T04:16:04;15;5;4
68713;PMS7003;55690;51.566;19.198;2023-04-19T04:20:11;7;7;6
68713;PMS7003;55690;51.566;19.198;2023-04-19T04:24:16;5;4;4
68713;PMS7003;55690;51.566;19.198;2023-04-19T04:28:23;8;4;4
68713;PMS7003;55690;51.566;19.198;2023-04-19T04:32:29;5;5;3
68713;PMS7003;55690;51.566;19.198;2023-04-19T04:36:35;12;5;5
68713;PMS7003;55690;51.566;19.198;2023-04-19T04:40:41;6;4;4
68713;PMS7003;55690;51.566;19.198;2023-04-19T04:44:47;8;5;4
68713;PMS7003;55690;51.566;19.198;2023-04-19T04:48:54;3;3;3
68713;PMS7003;55690;51.566;19.198;2023-04-19T04:53:00;4;4;3
68713;PMS7003;55690;51.566;19.198;2023-04-19T04:57:07;9;4;3
68713;PMS7003;55690;51.566;19.198;2023-04-19T05:01:12;9;5;4
68713;PMS7003;55690;51.566;19.198;2023-04-19T05:05:18;9;7;4
68713;PMS7003;55690;51.566;19.198;2023-04-19T05:09:24;6;5;4
68713;PMS7003;55690;51.566;19.198;2023-04-19T05:13:31;11;6;4
68713;PMS7003;55690;51.566;19.198;2023-04-19T05:17:37;5;4;3
68713;PMS7003;55690;51.566;19.198;2023-04-19T05:21:43;6;6;4
68713;PMS7003;55690;51.566;19.198;2023-04-19T05:25:49;13;8;4
68713;PMS7003;55690;51.566;19.198;2023-04-19T05:29:55;5;5;4
68713;PMS7003;55690;51.566;19.198;2023-04-19T05:34:01;4;2;2
68713;PMS7003;55690;51.566;19.198;2023-04-19T05:38:08;7;7;5
68713;PMS7003;55690;51.566;19.198;2023-04-19T05:42:14;9;9;6
68713;PMS7003;55690;51.566;19.198;2023-04-19T05:46:20;6;5;4
68713;PMS7003;55690;51.566;19.198;2023-04-19T05:50:26;10;7;6
68713;PMS7003;55690;51.566;19.198;2023-04-19T05:54:32;4;4;4
68713;PMS7003;55690;51.566;19.198;2023-04-19T05:58:38;9;7;6
68713;PMS7003;55690;51.566;19.198;2023-04-19T06:02:45;9;8;4
68713;PMS7003;55690;51.566;19.198;2023-04-19T06:06:51;5;5;4
68713;PMS7003;55690;51.566;19.198;2023-04-19T06:10:58;10;6;5
68713;PMS7003;55690;51.566;19.198;2023-04-19T06:15:04;7;5;3
68713;PMS7003;55690;51.566;19.198;2023-04-19T06:19:09;5;4;3
68713;PMS7003;55690;51.566;19.198;2023-04-19T06:23:16;10;6;5
68713;PMS7003;55690;51.566;19.198;2023-04-19T06:27:22;7;5;3
68713;PMS7003;55690;51.566;19.198;2023-04-19T06:31:28;8;6;5
68713;PMS7003;55690;51.566;19.198;2023-04-19T06:35:34;12;5;3
68713;PMS7003;55690;51.566;19.198;2023-04-19T06:39:40;5;5;4
68713;PMS7003;55690;51.566;19.198;2023-04-19T06:43:46;8;7;5
68713;PMS7003;55690;51.566;19.198;2023-04-19T06:47:53;7;7;5
68713;PMS7003;55690;51.566;19.198;2023-04-19T06:51:59;10;5;4
68713;PMS7003;55690;51.566;19.198;2023-04-19T06:56:05;4;4;3
68713;PMS7003;55690;51.566;19.198;2023-04-19T07:00:12;8;8;6
68713;PMS7003;55690;51.566;19.198;2023-04-19T07:04:17;11;11;9
68713;PMS7003;55690;51.566;19.198;2023-04-19T07:08:24;5;5;4
68713;PMS7003;55690;51.566;19.198;2023-04-19T07:12:30;7;6;5
68713;PMS7003;55690;51.566;19.198;2023-04-19T07:16:36;16;7;6
68713;PMS7003;55690;51.566;19.198;2023-04-19T07:20:42;8;8;6
68713;PMS7003;55690;51.566;19.198;2023-04-19T07:24:48;7;7;4
68713;PMS7003;55690;51.566;19.198;2023-04-19T07:28:54;15;10;8
68713;PMS7003;55690;51.566;19.198;2023-04-19T07:33:01;16;10;8
68713;PMS7003;55690;51.566;19.198;2023-04-19T07:37:07;10;10;8
68713;PMS7003;55690;51.566;19.198;2023-04-19T07:41:13;7;6;6
68713;PMS7003;55690;51.566;19.198;2023-04-19T07:45:19;6;6;4
68713;PMS7003;55690;51.566;19.198;2023-04-19T07:49:25;11;11;7
68713;PMS7003;55690;51.566;19.198;2023-04-19T07:53:32;7;5;4
68713;PMS7003;55690;51.566;19.198;2023-04-19T07:57:38;6;6;5
68713;PMS7003;55690;51.566;19.198;2023-04-19T08:01:44;8;5;4
68713;PMS7003;55690;51.566;19.198;2023-04-19T08:05:50;13;10;9
68713;PMS7003;55690;51.566;19.198;2023-04-19T08:09:56;16;13;8
68713;PMS7003;55690;51.566;19.198;2023-04-19T08:14:02;9;8;5
68713;PMS7003;55690;51.566;19.198;2023-04-19T08:18:08;9;9;6
68713;PMS7003;55690;51.566;19.198;2023-04-19T08:22:15;21;19;10
68713;PMS7003;55690;51.566;19.198;2023-04-19T08:26:21;9;9;8
68713;PMS7003;55690;51.566;19.198;2023-04-19T08:30:27;23;11;8
68713;PMS7003;55690;51.566;19.198;2023-04-19T08:34:36;14;12;10
68713;PMS7003;55690;51.566;19.198;2023-04-19T08:38:40;13;12;7
68713;PMS7003;55690;51.566;19.198;2023-04-19T08:42:45;28;20;13
68713;PMS7003;55690;51.566;19.198;2023-04-19T08:46:52;16;13;9
68713;PMS7003;55690;51.566;19.198;2023-04-19T08:50:58;13;10;7
68713;PMS7003;55690;51.566;19.198;2023-04-19T08:55:05;18;8;6
68713;PMS7003;55690;51.566;19.198;2023-04-19T08:59:10;9;8;7
68713;PMS7003;55690;51.566;19.198;2023-04-19T09:03:16;11;11;9
68713;PMS7003;55690;51.566;19.198;2023-04-19T09:07:23;12;11;8
68713;PMS7003;55690;51.566;19.198;2023-04-19T09:15:39;5;5;5
68713;PMS7003;55690;51.566;19.198;2023-04-19T09:19:47;8;8;6
68713;PMS7003;55690;51.566;19.198;2023-04-19T09:23:49;9;8;6
68713;PMS7003;55690;51.566;19.198;2023-04-19T09:27:53;12;7;6
68713;PMS7003;55690;51.566;19.198;2023-04-19T09:32:00;6;6;4
68713;PMS7003;55690;51.566;19.198;2023-04-19T09:36:06;11;4;3
68713;PMS7003;55690;51.566;19.198;2023-04-19T09:44:23;7;7;4
68713;PMS7003;55690;51.566;19.198;2023-04-19T09:48:25;14;7;5
68713;PMS7003;55690;51.566;19.198;2023-04-19T09:52:31;8;8;6
68713;PMS7003;55690;51.566;19.198;2023-04-19T09:56:37;13;7;5
68713;PMS7003;55690;51.566;19.198;2023-04-19T10:00:43;11;5;4
68713;PMS7003;55690;51.566;19.198;2023-04-19T10:04:49;13;10;8
68713;PMS7003;55690;51.566;19.198;2023-04-19T10:08:55;9;7;5
68713;PMS7003;55690;51.566;19.198;2023-04-19T10:13:02;11;11;7
68713;PMS7003;55690;51.566;19.198;2023-04-19T10:17:08;16;12;9
68713;PMS7003;55690;51.566;19.198;2023-04-19T10:21:14;6;5;4
68713;PMS7003;55690;51.566;19.198;2023-04-19T10:25:22;17;15;10
68713;PMS7003;55690;51.566;19.198;2023-04-19T10:37:39;6;6;5
68713;PMS7003;55690;51.566;19.198;2023-04-19T10:45:58;8;8;6
68713;PMS7003;55690;51.566;19.198;2023-04-19T10:50:06;12;5;5
68713;PMS7003;55690;51.566;19.198;2023-04-19T10:54:27;10;8;7
68713;PMS7003;55690;51.566;19.198;2023-04-19T10:58:21;10;8;6
68713;PMS7003;55690;51.566;19.198;2023-04-19T11:02:25;7;7;5
68713;PMS7003;55690;51.566;19.198;2023-04-19T11:06:28;9;6;4
68713;PMS7003;55690;51.566;19.198;2023-04-19T11:10:31;13;11;5
68713;PMS7003;55690;51.566;19.198;2023-04-19T11:18:44;13;11;7
68713;PMS7003;55690;51.566;19.198;2023-04-19T11:22:47;9;7;7
68713;PMS7003;55690;51.566;19.198;2023-04-19T11:26:55;10;8;5
68713;PMS7003;55690;51.566;19.198;2023-04-19T11:31:00;14;7;5
68713;PMS7003;55690;51.566;19.198;2023-04-19T11:35:06;13;5;4
68713;PMS7003;55690;51.566;19.198;2023-04-19T11:39:12;22;9;7
68713;PMS7003;55690;51.566;19.198;2023-04-19T11:43:18;11;9;7
68713;PMS7003;55690;51.566;19.198;2023-04-19T11:47:25;7;7;5
68713;PMS7003;55690;51.566;19.198;2023-04-19T11:51:31;14;12;9
68713;PMS7003;55690;51.566;19.198;2023-04-19T11:55:37;8;8;6
68713;PMS7003;55690;51.566;19.198;2023-04-19T12:00:00;12;7;6
68713;PMS7003;55690;51.566;19.198;2023-04-19T12:03:55;4;3;3
68713;PMS7003;55690;51.566;19.198;2023-04-19T12:08:03;15;12;8
68713;PMS7003;55690;51.566;19.198;2023-04-19T12:12:09;13;11;8
68713;PMS7003;55690;51.566;19.198;2023-04-19T12:16:11;7;7;6
68713;PMS7003;55690;51.566;19.198;2023-04-19T12:20:26;17;12;9
68713;PMS7003;55690;51.566;19.198;2023-04-19T12:24:26;9;9;7
68713;PMS7003;55690;51.566;19.198;2023-04-19T12:28:27;10;9;7
68713;PMS7003;55690;51.566;19.198;2023-04-19T12:32:32;19;11;6
68713;PMS7003;55690;51.566;19.198;2023-04-19T12:36:38;11;11;9
68713;PMS7003;55690;51.566;19.198;2023-04-19T12:40:45;10;9;7
68713;PMS7003;55690;51.566;19.198;2023-04-19T12:44:51;18;13;8
68713;PMS7003;55690;51.566;19.198;2023-04-19T12:48:57;13;8;6
68713;PMS7003;55690;51.566;19.198;2023-04-19T12:53:04;8;8;7
68713;PMS7003;55690;51.566;19.198;2023-04-19T12:57:09;6;6;5
68713;PMS7003;55690;51.566;19.198;2023-04-19T13:01:15;10;10;9
68713;PMS7003;55690;51.566;19.198;2023-04-19T13:05:22;11;8;5
68713;PMS7003;55690;51.566;19.198;2023-04-19T13:09:28;18;9;7
68713;PMS7003;55690;51.566;19.198;2023-04-19T13:13:34;21;10;7
68713;PMS7003;55690;51.566;19.198;2023-04-19T13:17:40;10;9;8
68713;PMS7003;55690;51.566;19.198;2023-04-19T13:21:46;17;12;8
68713;PMS7003;55690;51.566;19.198;2023-04-19T13:25:52;11;11;9
68713;PMS7003;55690;51.566;19.198;2023-04-19T13:29:59;13;11;6
68713;PMS7003;55690;51.566;19.198;2023-04-19T13:34:05;13;13;7
68713;PMS7003;55690;51.566;19.198;2023-04-19T13:38:11;12;12;8
68713;PMS7003;55690;51.566;19.198;2023-04-19T13:42:17;14;7;7
68713;PMS7003;55690;51.566;19.198;2023-04-19T13:46:23;16;15;11
68713;PMS7003;55690;51.566;19.198;2023-04-19T13:50:30;24;17;11
68713;PMS7003;55690;51.566;19.198;2023-04-19T13:54:36;12;10;7
68713;PMS7003;55690;51.566;19.198;2023-04-19T13:58:42;14;11;8
68713;PMS7003;55690;51.566;19.198;2023-04-19T14:02:48;12;11;9
68713;PMS7003;55690;51.566;19.198;2023-04-19T14:06:54;11;10;8
68713;PMS7003;55690;51.566;19.198;2023-04-19T14:11:00;12;9;7
68713;PMS7003;55690;51.566;19.198;2023-04-19T14:15:07;26;13;9
68713;PMS7003;55690;51.566;19.198;2023-04-19T14:19:13;16;12;10
68713;PMS7003;55690;51.566;19.198;2023-04-19T14:23:19;27;14;8
68713;PMS7003;55690;51.566;19.198;2023-04-19T14:27:25;17;16;10
68713;PMS7003;55690;51.566;19.198;2023-04-19T14:31:31;15;12;9
68713;PMS7003;55690;51.566;19.198;2023-04-19T14:35:37;13;11;7
68713;PMS7003;55690;51.566;19.198;2023-04-19T14:39:44;11;10;5
68713;PMS7003;55690;51.566;19.198;2023-04-19T14:43:50;18;14;11
68713;PMS7003;55690;51.566;19.198;2023-04-19T14:47:56;22;14;11
68713;PMS7003;55690;51.566;19.198;2023-04-19T14:52:02;14;11;9
68713;PMS7003;55690;51.566;19.198;2023-04-19T14:56:09;8;8;6
68713;PMS7003;55690;51.566;19.198;2023-04-19T15:00:15;17;10;6
68713;PMS7003;55690;51.566;19.198;2023-04-19T15:04:21;9;9;6
68713;PMS7003;55690;51.566;19.198;2023-04-19T15:08:27;26;13;8
68713;PMS7003;55690;51.566;19.198;2023-04-19T15:12:33;25;20;13
68713;PMS7003;55690;51.566;19.198;2023-04-19T15:16:40;18;13;7
68713;PMS7003;55690;51.566;19.198;2023-04-19T15:20:46;25;16;10
68713;PMS7003;55690;51.566;19.198;2023-04-19T15:24:52;22;14;10
68713;PMS7003;55690;51.566;19.198;2023-04-19T15:28:58;13;13;10
68713;PMS7003;55690;51.566;19.198;2023-04-19T15:33:04;11;10;7
68713;PMS7003;55690;51.566;19.198;2023-04-19T15:37:11;23;21;13
68713;PMS7003;55690;51.566;19.198;2023-04-19T15:41:17;19;12;8
68713;PMS7003;55690;51.566;19.198;2023-04-19T15:45:23;15;15;11
68713;PMS7003;55690;51.566;19.198;2023-04-19T15:49:29;14;11;8
68713;PMS7003;55690;51.566;19.198;2023-04-19T15:53:35;20;18;12
68713;PMS7003;55690;51.566;19.198;2023-04-19T15:57:42;22;16;10
68713;PMS7003;55690;51.566;19.198;2023-04-19T16:01:48;17;10;8
68713;PMS7003;55690;51.566;19.198;2023-04-19T16:05:54;20;14;11
68713;PMS7003;55690;51.566;19.198;2023-04-19T16:10:00;16;14;9
68713;PMS7003;55690;51.566;19.198;2023-04-19T16:14:06;16;13;9
68713;PMS7003;55690;51.566;19.198;2023-04-19T16:18:12;17;16;12
68713;PMS7003;55690;51.566;19.198;2023-04-19T16:22:18;19;16;10
68713;PMS7003;55690;51.566;19.198;2023-04-19T16:26:25;13;12;8
68713;PMS7003;55690;51.566;19.198;2023-04-19T16:30:31;26;16;11
68713;PMS7003;55690;51.566;19.198;2023-04-19T16:34:37;29;21;12
68713;PMS7003;55690;51.566;19.198;2023-04-19T16:38:43;20;18;13
68713;PMS7003;55690;51.566;19.198;2023-04-19T16:42:49;14;14;8
68713;PMS7003;55690;51.566;19.198;2023-04-19T16:46:56;23;18;13
68713;PMS7003;55690;51.566;19.198;2023-04-19T16:51:02;15;14;10
68713;PMS7003;55690;51.566;19.198;2023-04-19T16:55:08;23;14;10
68713;PMS7003;55690;51.566;19.198;2023-04-19T16:59:15;12;12;11
68713;PMS7003;55690;51.566;19.198;2023-04-19T17:03:20;21;13;9
68713;PMS7003;55690;51.566;19.198;2023-04-19T17:07:26;15;10;9
68713;PMS7003;55690;51.566;19.198;2023-04-19T17:11:33;23;15;11
68713;PMS7003;55690;51.566;19.198;2023-04-19T17:15:39;17;10;7
68713;PMS7003;55690;51.566;19.198;2023-04-19T17:19:45;25;11;8
68713;PMS7003;55690;51.566;19.198;2023-04-19T17:23:51;12;8;7
68713;PMS7003;55690;51.566;19.198;2023-04-19T17:27:57;13;13;6
68713;PMS7003;55690;51.566;19.198;2023-04-19T17:32:04;22;16;8
68713;PMS7003;55690;51.566;19.198;2023-04-19T17:36:10;19;10;7
68713;PMS7003;55690;51.566;19.198;2023-04-19T17:40:16;19;14;10
68713;PMS7003;55690;51.566;19.198;2023-04-19T17:44:22;18;18;10
68713;PMS7003;55690;51.566;19.198;2023-04-19T17:48:28;16;10;7
68713;PMS7003;55690;51.566;19.198;2023-04-19T17:52:34;13;13;10
68713;PMS7003;55690;51.566;19.198;2023-04-19T17:56:40;19;16;11
68713;PMS7003;55690;51.566;19.198;2023-04-19T18:00:47;25;19;11
68713;PMS7003;55690;51.566;19.198;2023-04-19T18:04:53;17;9;6
68713;PMS7003;55690;51.566;19.198;2023-04-19T18:08:59;22;22;14
68713;PMS7003;55690;51.566;19.198;2023-04-19T18:13:05;20;17;11
68713;PMS7003;55690;51.566;19.198;2023-04-19T18:17:11;14;11;7
68713;PMS7003;55690;51.566;19.198;2023-04-19T18:21:18;19;13;8
68713;PMS7003;55690;51.566;19.198;2023-04-19T18:25:24;13;13;12
68713;PMS7003;55690;51.566;19.198;2023-04-19T18:29:30;16;14;10
68713;PMS7003;55690;51.566;19.198;2023-04-19T18:33:36;25;20;15
68713;PMS7003;55690;51.566;19.198;2023-04-19T18:37:42;42;25;17
68713;PMS7003;55690;51.566;19.198;2023-04-19T18:41:48;17;11;7
68713;PMS7003;55690;51.566;19.198;2023-04-19T18:45:55;18;15;10
68713;PMS7003;55690;51.566;19.198;2023-04-19T18:50:01;19;15;11
68713;PMS7003;55690;51.566;19.198;2023-04-19T18:54:07;12;10;6
68713;PMS7003;55690;51.566;19.198;2023-04-19T18:58:13;23;14;10
68713;PMS7003;55690;51.566;19.198;2023-04-19T19:02:20;19;18;11
68713;PMS7003;55690;51.566;19.198;2023-04-19T19:06:25;14;12;8
68713;PMS7003;55690;51.566;19.198;2023-04-19T19:10:32;14;10;8
68713;PMS7003;55690;51.566;19.198;2023-04-19T19:14:38;17;11;9
68713;PMS7003;55690;51.566;19.198;2023-04-19T19:18:44;13;12;9
68713;PMS7003;55690;51.566;19.198;2023-04-19T19:22:50;15;14;9
68713;PMS7003;55690;51.566;19.198;2023-04-19T19:26:56;14;12;10
68713;PMS7003;55690;51.566;19.198;2023-04-19T19:31:03;21;15;10
68713;PMS7003;55690;51.566;19.198;2023-04-19T19:35:09;18;14;10
68713;PMS7003;55690;51.566;19.198;2023-04-19T19:39:15;28;16;14
68713;PMS7003;55690;51.566;19.198;2023-04-19T19:43:21;21;14;11
68713;PMS7003;55690;51.566;19.198;2023-04-19T19:47:27;33;19;11
68713;PMS7003;55690;51.566;19.198;2023-04-19T19:51:34;38;25;13
68713;PMS7003;55690;51.566;19.198;2023-04-19T19:55:40;13;12;11
68713;PMS7003;55690;51.566;19.198;2023-04-19T19:59:46;22;17;11
68713;PMS7003;55690;51.566;19.198;2023-04-19T20:03:55;37;20;14
68713;PMS7003;55690;51.566;19.198;2023-04-19T20:12:10;18;14;9
68713;PMS7003;55690;51.566;19.198;2023-04-19T20:16:13;27;21;14
68713;PMS7003;55690;51.566;19.198;2023-04-19T20:20:17;18;15;8
68713;PMS7003;55690;51.566;19.198;2023-04-19T20:24:23;16;12;9
68713;PMS7003;55690;51.566;19.198;2023-04-19T20:28:29;17;17;12
68713;PMS7003;55690;51.566;19.198;2023-04-19T20:32:35;19;16;10
68713;PMS7003;55690;51.566;19.198;2023-04-19T20:36:41;17;15;11
68713;PMS7003;55690;51.566;19.198;2023-04-19T20:40:48;32;19;13
68713;PMS7003;55690;51.566;19.198;2023-04-19T20:44:54;28;16;11
68713;PMS7003;55690;51.566;19.198;2023-04-19T20:49:00;34;15;11
68713;PMS7003;55690;51.566;19.198;2023-04-19T20:53:06;18;18;13
68713;PMS7003;55690;51.566;19.198;2023-04-19T20:57:12;27;18;12
68713;PMS7003;55690;51.566;19.198;2023-04-19T21:01:18;46;24;18
68713;PMS7003;55690;51.566;19.198;2023-04-19T21:05:25;28;17;13
68713;PMS7003;55690;51.566;19.198;2023-04-19T21:09:31;28;16;10
68713;PMS7003;55690;51.566;19.198;2023-04-19T21:13:37;25;17;11
68713;PMS7003;55690;51.566;19.198;2023-04-19T21:17:43;26;19;11
68713;PMS7003;55690;51.566;19.198;2023-04-19T21:21:49;37;25;13
68713;PMS7003;55690;51.566;19.198;2023-04-19T21:25:55;27;19;11
68713;PMS7003;55690;51.566;19.198;2023-04-19T21:30:02;22;13;7
68713;PMS7003;55690;51.566;19.198;2023-04-19T21:34:08;23;15;9
68713;PMS7003;55690;51.566;19.198;2023-04-19T21:38:14;27;20;11
68713;PMS7003;55690;51.566;19.198;2023-04-19T21:42:20;31;25;17
68713;PMS7003;55690;51.566;19.198;2023-04-19T21:46:26;31;17;13
68713;PMS7003;55690;51.566;19.198;2023-04-19T21:50:33;19;13;6
68713;PMS7003;55690;51.566;19.198;2023-04-19T21:54:39;18;17;10
68713;PMS7003;55690;51.566;19.198;2023-04-19T21:58:45;17;13;8
68713;PMS7003;55690;51.566;19.198;2023-04-19T22:02:51;25;21;15
68713;PMS7003;55690;51.566;19.198;2023-04-19T22:06:58;17;14;11
68713;PMS7003;55690;51.566;19.198;2023-04-19T22:11:03;21;15;10
68713;PMS7003;55690;51.566;19.198;2023-04-19T22:15:10;28;19;10
68713;PMS7003;55690;51.566;19.198;2023-04-19T22:19:16;28;17;12
68713;PMS7003;55690;51.566;19.198;2023-04-19T22:23:22;24;18;11
68713;PMS7003;55690;51.566;19.198;2023-04-19T22:27:28;28;21;11
68713;PMS7003;55690;51.566;19.198;2023-04-19T22:31:34;23;15;11
68713;PMS7003;55690;51.566;19.198;2023-04-19T22:35:40;20;18;11
68713;PMS7003;55690;51.566;19.198;2023-04-19T22:39:47;26;16;9
68713;PMS7003;55690;51.566;19.198;2023-04-19T22:43:53;25;22;10
68713;PMS7003;55690;51.566;19.198;2023-04-19T22:47:59;27;21;14
68713;PMS7003;55690;51.566;19.198;2023-04-19T22:52:05;23;20;16
68713;PMS7003;55690;51.566;19.198;2023-04-19T22:56:11;21;20;12
68713;PMS7003;55690;51.566;19.198;2023-04-19T23:00:18;19;13;8
68713;PMS7003;55690;51.566;19.198;2023-04-19T23:04:24;18;14;11
68713;PMS7003;55690;51.566;19.198;2023-04-19T23:08:30;17;16;10
68713;PMS7003;55690;51.566;19.198;2023-04-19T23:12:37;27;21;11
68713;PMS7003;55690;51.566;19.198;2023-04-19T23:16:43;24;19;11
68713;PMS7003;55690;51.566;19.198;2023-04-19T23:20:49;23;16;8
68713;PMS7003;55690;51.566;19.198;2023-04-19T23:24:55;23;17;9
68713;PMS7003;55690;51.566;19.198;2023-04-19T23:29:02;27;23;15
68713;PMS7003;55690;51.566;19.198;2023-04-19T23:33:08;24;17;10
68713;PMS7003;55690;51.566;19.198;2023-04-19T23:37:14;28;24;12
68713;PMS7003;55690;51.566;19.198;2023-04-19T23:41:20;20;15;11
68713;PMS7003;55690;51.566;19.198;2023-04-19T23:45:26;23;19;13
68713;PMS7003;55690;51.566;19.198;2023-04-19T23:49:33;27;17;11
68713;PMS7003;55690;51.566;19.198;2023-04-19T23:53:39;28;21;12
68713;PMS7003;55690;51.566;19.198;2023-04-19T23:57:45;27;21;11
